Aviation Digital Data Service (ADDS)

Output produced by METARs form (1742 UTC 21 September 2019)
found at http://aviationweather.gov/metar/data/
 
KTYR 211734Z 2118/2218 16011KT P6SM BKN035 
     FM212000 16011KT P6SM SCT050 
     FM220100 15010KT P6SM FEW280 
     FM221000 17009KT P6SM BKN013 
     FM221500 18011KT P6SM BKN018